createdAt,value
2023-01-10T00:01:15.658Z,4.9
2023-01-10T00:05:23.055Z,5.1
2023-01-10T00:07:29.765Z,5.4
2023-01-10T00:09:33.409Z,5.1
2023-01-10T00:11:37.076Z,5.1
2023-01-10T00:12:40.436Z,5.1
2023-01-10T00:14:44.103Z,5.2
2023-01-10T00:16:47.763Z,5.2
2023-01-10T00:18:51.428Z,5.3
2023-01-10T00:20:58.111Z,5.4
2023-01-10T00:23:01.907Z,5.4
2023-01-10T00:25:05.445Z,5.4
2023-01-10T00:27:09.064Z,5.4
2023-01-10T00:29:12.712Z,5.3
2023-01-10T00:31:16.374Z,5.2
2023-01-10T00:35:26.723Z,5.3
2023-01-10T00:37:30.336Z,5.3
2023-01-10T00:39:33.948Z,5.5
2023-01-10T00:41:37.622Z,5.5
2023-01-10T00:43:41.302Z,5.6
2023-01-10T00:45:44.926Z,5.4
2023-01-10T00:49:55.242Z,5.4
2023-01-10T00:54:02.717Z,5.5
2023-01-10T00:56:06.220Z,5.5
2023-01-10T00:58:09.852Z,5.6
2023-01-10T01:00:13.481Z,5.6
2023-01-10T01:02:17.276Z,5.5
2023-01-10T01:04:23.849Z,5.3
2023-01-10T01:06:27.497Z,5.3
2023-01-10T01:08:31.139Z,5.4
2023-01-10T01:09:34.458Z,5.3
2023-01-10T01:13:41.789Z,5.2
2023-01-10T01:15:45.571Z,5.2
2023-01-10T01:17:52.140Z,5.1
2023-01-10T01:24:03.107Z,5.3
2023-01-10T01:30:13.995Z,5.3
2023-01-10T01:32:20.695Z,5.4
2023-01-10T01:38:31.642Z,5.3
2023-01-10T01:44:42.621Z,5.3
2023-01-10T01:46:49.272Z,5.4
2023-01-10T01:48:52.938Z,5.5
2023-01-10T01:50:56.556Z,5.5
2023-01-10T01:53:00.243Z,5.5
2023-01-10T01:59:11.153Z,5.5
2023-01-10T02:01:17.999Z,5.6
2023-01-10T02:03:21.523Z,5.6
2023-01-10T02:05:25.119Z,5.6
2023-01-10T02:06:28.454Z,5.6
2023-01-10T02:10:35.749Z,5.6
2023-01-10T02:12:39.393Z,5.5
2023-01-10T02:14:46.104Z,5.5
2023-01-10T02:18:53.366Z,5.5
2023-01-10T02:20:56.987Z,5.4
2023-01-10T02:23:00.659Z,5.4
2023-01-10T02:25:04.276Z,5.5
2023-01-10T02:29:16.168Z,5.4
2023-01-10T02:33:23.452Z,5.5
2023-01-10T02:35:27.095Z,5.5
2023-01-10T02:37:30.724Z,5.5
2023-01-10T02:39:34.391Z,5.5
2023-01-10T02:41:37.986Z,5.5
2023-01-10T02:43:44.712Z,5.5
2023-01-10T02:47:52.012Z,5.4
2023-01-10T02:49:55.655Z,5.4
2023-01-10T02:54:02.933Z,5.4
2023-01-10T02:58:13.268Z,5.4
2023-01-10T03:00:16.929Z,5.4
2023-01-10T03:02:20.559Z,5.5
2023-01-10T03:04:44.866Z,5.6
2023-01-10T03:06:48.507Z,5.5
2023-01-10T03:08:52.127Z,5.5
2023-01-10T03:10:58.770Z,5.3
2023-01-10T03:13:02.422Z,5.5
2023-01-10T03:15:06.090Z,5.4
2023-01-10T03:19:13.395Z,5.5
2023-01-10T03:23:20.649Z,5.2
2023-01-10T03:25:27.327Z,5.4
2023-01-10T03:27:31.013Z,5.3
2023-01-10T03:29:34.669Z,5.4
2023-01-10T03:31:38.331Z,5.5
2023-01-10T03:33:41.937Z,5.6
2023-01-10T03:35:45.556Z,5.5
2023-01-10T03:37:49.218Z,5.5
2023-01-10T03:39:55.884Z,5.6
2023-01-10T03:41:59.520Z,5.5
2023-01-10T03:44:03.154Z,5.6
2023-01-10T03:46:06.794Z,5.6
2023-01-10T03:48:10.487Z,5.6
2023-01-10T03:50:14.082Z,5.7
2023-01-10T03:52:17.682Z,5.6
2023-01-10T03:54:24.385Z,5.6
2023-01-10T03:56:28.041Z,5.6
2023-01-10T03:58:31.700Z,5.5
2023-01-10T04:03:42.370Z,5.5
2023-01-10T04:05:45.937Z,5.7
2023-01-10T04:07:52.639Z,5.7
2023-01-10T04:09:56.270Z,5.7
2023-01-10T04:11:59.868Z,5.5
2023-01-10T04:14:03.506Z,5.5
2023-01-10T04:18:10.874Z,5.7
2023-01-10T04:20:14.414Z,5.6
2023-01-10T04:22:21.122Z,5.7
2023-01-10T04:30:35.620Z,5.7
2023-01-10T04:32:39.331Z,5.7
2023-01-10T04:43:00.572Z,5.7
2023-01-10T04:51:18.196Z,5.7
2023-01-10T04:56:28.822Z,5.6
2023-01-10T04:58:32.452Z,5.5
2023-01-10T05:00:36.094Z,5.8
2023-01-10T05:02:39.862Z,5.7
2023-01-10T05:04:46.423Z,5.6
2023-01-10T05:06:50.092Z,5.6
2023-01-10T05:08:53.720Z,5.6
2023-01-10T05:10:57.336Z,5.8
2023-01-10T05:13:00.982Z,5.6
2023-01-10T05:15:04.667Z,5.7
2023-01-10T05:17:08.265Z,5.7
2023-01-10T05:19:14.953Z,5.8
2023-01-10T05:21:18.576Z,5.7
2023-01-10T05:23:22.260Z,5.8
2023-01-10T05:25:25.896Z,5.7
2023-01-10T05:27:29.502Z,5.7
2023-01-10T05:29:33.150Z,5.7
2023-01-10T05:31:36.883Z,5.6
2023-01-10T05:33:43.522Z,5.5
2023-01-10T05:35:47.157Z,5.6
2023-01-10T05:37:50.779Z,5.5
2023-01-10T05:39:54.869Z,5.6
2023-01-10T05:41:58.068Z,5.4
2023-01-10T05:44:01.724Z,5.5
2023-01-10T05:46:05.483Z,5.5
2023-01-10T05:48:12.022Z,5.4
2023-01-10T05:50:15.671Z,5.5
2023-01-10T05:52:19.319Z,5.6
2023-01-10T05:57:29.952Z,5.5
2023-01-10T05:59:33.604Z,5.6
2023-01-10T06:01:40.270Z,5.4
2023-01-10T06:03:43.914Z,5.6
2023-01-10T06:05:48.901Z,5.4
2023-01-10T06:07:51.214Z,5.5
2023-01-10T06:09:54.842Z,5.3
2023-01-10T06:11:58.470Z,5.6
2023-01-10T06:14:02.110Z,5.5
2023-01-10T06:18:12.699Z,5.4
2023-01-10T06:20:16.093Z,5.5
2023-01-10T06:22:19.726Z,5.6
2023-01-10T06:24:23.415Z,5.5
2023-01-10T06:26:27.026Z,5.6
2023-01-10T06:28:30.654Z,5.7
2023-01-10T06:30:37.354Z,5.8
2023-01-10T06:32:41.006Z,5.8
2023-01-10T06:34:44.605Z,5.8
2023-01-10T06:36:48.325Z,5.9
2023-01-10T06:38:51.911Z,5.8
2023-01-10T06:40:55.545Z,5.8
2023-01-10T06:42:59.280Z,5.8
2023-01-10T06:45:05.871Z,5.8
2023-01-10T06:47:09.515Z,5.7
2023-01-10T06:49:13.169Z,5.8
2023-01-10T06:51:31.390Z,5.8
2023-01-10T06:55:38.645Z,6
2023-01-10T06:57:45.347Z,5.8
2023-01-10T06:59:48.983Z,5.9
2023-01-10T07:01:52.723Z,5.8
2023-01-10T07:03:56.372Z,5.7
2023-01-10T07:05:59.904Z,5.7
2023-01-10T07:08:03.532Z,5.7
2023-01-10T07:10:07.180Z,5.8
2023-01-10T07:12:13.887Z,5.7
2023-01-10T07:14:17.517Z,5.7
2023-01-10T07:16:21.168Z,5.7
2023-01-10T07:18:24.740Z,5.7
2023-01-10T07:20:28.509Z,5.8
2023-01-10T07:22:32.032Z,5.7
2023-01-10T07:24:35.668Z,5.7
2023-01-10T07:26:42.388Z,5.7
2023-01-10T07:28:46.015Z,5.8
2023-01-10T07:30:49.673Z,5.7
2023-01-10T07:32:53.272Z,5.6
2023-01-10T07:34:56.963Z,5.6
2023-01-10T07:37:00.555Z,5.7
2023-01-10T07:39:04.175Z,5.6
2023-01-10T07:41:10.910Z,5.8
2023-01-10T07:43:14.518Z,5.8
2023-01-10T07:45:18.128Z,5.7
2023-01-10T07:46:21.509Z,5.7
2023-01-10T07:52:32.419Z,5.7
2023-01-10T07:54:39.094Z,5.7
2023-01-10T07:56:42.733Z,5.7
2023-01-10T07:58:46.358Z,5.7
2023-01-10T08:00:50.065Z,5.8
2023-01-10T08:02:53.779Z,5.7
2023-01-10T08:04:57.249Z,5.7
2023-01-10T08:07:00.870Z,5.7
2023-01-10T08:09:07.593Z,5.8
2023-01-10T08:11:11.213Z,5.7
2023-01-10T08:13:18.852Z,5.7
2023-01-10T08:15:18.481Z,5.8
2023-01-10T08:17:22.123Z,5.8
2023-01-10T08:19:25.731Z,5.8
2023-01-10T08:21:29.403Z,5.8
2023-01-10T08:23:37.619Z,5.8
2023-01-10T08:25:41.234Z,5.8
2023-01-10T08:27:44.855Z,5.8
2023-01-10T08:29:48.507Z,5.9
2023-01-10T08:31:52.150Z,5.9
2023-01-10T08:33:55.785Z,5.9
2023-01-10T08:35:59.400Z,5.9
2023-01-10T08:38:06.139Z,5.9
2023-01-10T08:40:09.830Z,5.9
2023-01-10T08:42:13.438Z,5.9
2023-01-10T08:43:16.782Z,5.9
2023-01-10T08:45:20.424Z,5.9
2023-01-10T08:47:24.031Z,5.9
2023-01-10T08:49:27.713Z,5.9
2023-01-10T08:55:41.659Z,5.9
2023-01-10T09:01:52.738Z,6
2023-01-10T09:03:56.242Z,6
2023-01-10T09:06:02.982Z,6
2023-01-10T09:08:06.516Z,6
2023-01-10T09:10:10.182Z,6
2023-01-10T09:12:13.802Z,6
2023-01-10T09:14:17.452Z,6
2023-01-10T09:16:21.165Z,6.1
2023-01-10T09:18:24.735Z,6.1
2023-01-10T09:20:31.432Z,6.1
2023-01-10T09:22:35.113Z,6.1
2023-01-10T09:26:42.341Z,6.2
2023-01-10T09:28:48.672Z,6.2
2023-01-10T09:32:53.218Z,6.3
2023-01-10T09:34:59.897Z,6.3
2023-01-10T09:37:03.574Z,6.4
2023-01-10T09:39:07.230Z,6.3
2023-01-10T09:40:10.566Z,6.3
2023-01-10T09:42:14.184Z,6.4
2023-01-10T09:44:17.849Z,6.4
2023-01-10T09:46:21.520Z,6.4
2023-01-10T09:48:28.160Z,6.4
2023-01-10T09:50:31.816Z,6.4
2023-01-10T09:52:35.450Z,6.4
2023-01-10T09:54:39.062Z,6.4
2023-01-10T09:56:42.694Z,6.3
2023-01-10T09:58:46.477Z,6.3
2023-01-10T10:00:49.966Z,6.3
2023-01-10T10:02:56.663Z,6.3
2023-01-10T10:05:00.233Z,6.3
2023-01-10T10:07:03.899Z,6.3
2023-01-10T10:11:11.155Z,6.3
2023-01-10T10:13:23.189Z,6.3
2023-01-10T10:15:18.469Z,6.3
2023-01-10T10:17:25.300Z,6.3
2023-01-10T10:19:28.784Z,6.3
2023-01-10T10:21:32.419Z,6.3
2023-01-10T10:23:36.079Z,6.3
2023-01-10T10:25:39.680Z,6.4
2023-01-10T10:27:43.351Z,6.4
2023-01-10T10:31:53.685Z,6.4
2023-01-10T10:33:57.268Z,6.4
2023-01-10T10:36:00.954Z,6.4
2023-01-10T10:38:25.185Z,6.4
2023-01-10T10:40:28.833Z,6.4
2023-01-10T10:42:32.431Z,6.4
2023-01-10T10:46:42.756Z,6.3
2023-01-10T10:50:49.976Z,6.3
2023-01-10T10:57:00.892Z,6.3
2023-01-10T11:01:11.312Z,6.3
2023-01-10T11:03:14.826Z,6.3
2023-01-10T11:05:18.475Z,6.3
2023-01-10T11:07:22.116Z,6.3
2023-01-10T11:11:29.334Z,6.4
2023-01-10T11:17:43.329Z,6.4
2023-01-10T11:21:50.593Z,6.3
2023-01-10T11:23:54.243Z,6.3
2023-01-10T11:28:04.559Z,6.3
2023-01-10T11:30:08.178Z,6.3
2023-01-10T11:32:11.810Z,6.3
2023-01-10T11:39:26.035Z,6.2
2023-01-10T11:41:32.737Z,6.2
2023-01-10T11:45:40.038Z,6.3
2023-01-10T11:47:52.117Z,6.3
2023-01-10T11:49:47.232Z,6.3
2023-01-10T11:51:50.913Z,6.2
2023-01-10T11:53:54.521Z,6.3
2023-01-10T11:56:01.217Z,6.2
2023-01-10T11:58:04.836Z,6.2
2023-01-10T12:00:08.469Z,6.3
2023-01-10T12:02:12.220Z,6.3
2023-01-10T12:04:15.762Z,6.3
2023-01-10T12:06:19.374Z,6.3
2023-01-10T12:08:23.000Z,6.3
2023-01-10T12:10:29.725Z,6.3
2023-01-10T12:16:40.604Z,6.4
2023-01-10T12:18:44.236Z,6.4
2023-01-10T12:22:51.503Z,6.4
2023-01-10T12:24:58.200Z,6.3
2023-01-10T12:27:01.814Z,6.3
2023-01-10T12:29:05.481Z,6.4
2023-01-10T12:30:08.817Z,6.4
2023-01-10T12:34:16.090Z,6.4
2023-01-10T12:36:19.731Z,6.4
2023-01-10T12:38:26.409Z,6.5
2023-01-10T12:40:30.037Z,6.5
2023-01-10T12:42:33.690Z,6.5
2023-01-10T12:44:37.322Z,6.6
2023-01-10T12:47:05.168Z,6.6
2023-01-10T12:48:44.576Z,6.5
2023-01-10T12:50:48.203Z,6.6
2023-01-10T12:52:54.910Z,6.5
2023-01-10T12:54:58.578Z,6.5
2023-01-10T12:57:02.183Z,6.5
2023-01-10T12:59:05.848Z,6.5
2023-01-10T13:03:13.125Z,6.5
2023-01-10T13:05:16.724Z,6.6
2023-01-10T13:07:23.405Z,6.5
2023-01-10T13:09:27.037Z,6.5
2023-01-10T13:11:30.682Z,6.5
2023-01-10T13:15:38.008Z,6.5
2023-01-10T13:17:41.569Z,6.5
2023-01-10T13:19:45.212Z,6.6
2023-01-10T13:21:51.945Z,6.6
2023-01-10T13:23:55.529Z,6.6
2023-01-10T13:25:59.143Z,6.6
2023-01-10T13:27:02.517Z,6.6
2023-01-10T13:33:13.357Z,6.5
2023-01-10T13:35:20.080Z,6.5
2023-01-10T13:37:23.715Z,6.6
2023-01-10T13:39:27.318Z,6.5
2023-01-10T13:41:30.939Z,6.6
2023-01-10T13:43:34.736Z,6.5
2023-01-10T13:45:38.218Z,6.5
2023-01-10T13:47:41.869Z,6.5
2023-01-10T13:49:48.575Z,6.6
2023-01-10T13:51:52.179Z,6.6
2023-01-10T13:53:55.832Z,6.6
2023-01-10T13:55:59.460Z,6.6
2023-01-10T13:58:03.077Z,6.6
2023-01-10T14:00:06.725Z,6.6
2023-01-10T14:02:10.408Z,6.6
2023-01-10T14:04:17.082Z,6.6
2023-01-10T14:06:20.643Z,6.7
2023-01-10T14:08:24.311Z,6.7
2023-01-10T14:10:27.952Z,6.7
2023-01-10T14:12:31.581Z,6.7
2023-01-10T14:14:35.197Z,6.7
2023-01-10T14:18:45.539Z,6.7
2023-01-10T14:20:49.229Z,6.8
2023-01-10T14:22:52.831Z,6.8
2023-01-10T14:27:22.229Z,6.8
2023-01-10T14:29:25.859Z,6.8
2023-01-10T14:31:32.605Z,6.9
2023-01-10T14:33:36.439Z,6.9
2023-01-10T14:35:39.809Z,6.9
2023-01-10T14:37:43.471Z,6.9
2023-01-10T14:39:47.057Z,6.9
2023-01-10T14:41:50.692Z,6.9
2023-01-10T14:43:54.327Z,6.9
2023-01-10T14:46:01.150Z,6.9
2023-01-10T14:48:04.722Z,6.9
2023-01-10T14:50:08.280Z,6.9
2023-01-10T14:54:15.565Z,6.9
2023-01-10T14:56:19.209Z,6.8
2023-01-10T14:58:22.830Z,6.8
2023-01-10T15:00:29.554Z,6.9
2023-01-10T15:02:33.176Z,6.9
2023-01-10T15:04:36.852Z,6.9
2023-01-10T15:06:40.415Z,6.9
2023-01-10T15:08:57.601Z,6.8
2023-01-10T15:12:51.324Z,6.8
2023-01-10T15:14:58.040Z,6.8
2023-01-10T15:17:01.656Z,6.7
2023-01-10T15:20:08.717Z,6.7
2023-01-10T15:22:12.261Z,6.7
2023-01-10T15:24:15.821Z,6.6
2023-01-10T15:26:19.478Z,6.6
2023-01-10T15:28:26.187Z,6.5
2023-01-10T15:30:29.851Z,6.5
2023-01-10T15:32:33.444Z,6.4
2023-01-10T15:34:37.072Z,6.4
2023-01-10T15:36:40.739Z,6.3
2023-01-10T15:40:47.990Z,6.3
2023-01-10T15:42:54.698Z,6.3
2023-01-10T15:44:58.330Z,6.3
2023-01-10T15:47:02.005Z,6.3
2023-01-10T15:49:05.605Z,6.2
2023-01-10T15:51:09.217Z,6.2
2023-01-10T15:53:12.846Z,6.1
2023-01-10T15:55:16.511Z,6.2
2023-01-10T15:57:23.203Z,6.1
2023-01-10T15:59:26.816Z,6.1
2023-01-10T16:01:30.614Z,6.1
2023-01-10T16:03:34.224Z,6.1
2023-01-10T16:05:37.710Z,6
2023-01-10T16:07:41.378Z,6
2023-01-10T16:09:45.005Z,6
2023-01-10T16:11:51.669Z,6.1
2023-01-10T16:13:55.287Z,6
2023-01-10T16:15:59.013Z,6.1
2023-01-10T16:17:02.276Z,5.9
2023-01-10T16:19:05.926Z,5.8
2023-01-10T16:21:09.525Z,6.3
2023-01-10T16:23:13.197Z,6.2
2023-01-10T16:25:19.877Z,5.9
2023-01-10T16:27:23.521Z,5.9
2023-01-10T16:29:27.162Z,6.1
2023-01-10T16:31:30.822Z,6.2
2023-01-10T16:35:38.050Z,6.3
2023-01-10T16:37:41.657Z,5.6
2023-01-10T16:39:48.378Z,5.4
2023-01-10T16:41:52.008Z,6.3
2023-01-10T16:43:55.652Z,5.4
2023-01-10T16:45:59.377Z,6
2023-01-10T16:48:02.905Z,5.7
2023-01-10T16:52:10.170Z,6.1
2023-01-10T16:58:24.127Z,5.4
2023-01-10T17:00:27.787Z,5.3
2023-01-10T17:02:31.367Z,6.1
2023-01-10T17:04:35.060Z,5.6
2023-01-10T17:06:38.624Z,6.3
2023-01-10T17:08:45.293Z,5.7
2023-01-10T17:10:48.965Z,5.9
2023-01-10T17:12:52.607Z,6
2023-01-10T17:13:55.944Z,5.4
2023-01-10T17:15:59.568Z,6.2
2023-01-10T17:18:03.185Z,5.3
2023-01-10T17:20:06.779Z,5.5
2023-01-10T17:24:17.095Z,5.6
2023-01-10T17:28:24.343Z,5.2
2023-01-10T17:30:27.924Z,5.9
2023-01-10T17:32:31.610Z,5.5
2023-01-10T17:34:35.259Z,5.5
2023-01-10T17:38:45.569Z,5.3
2023-01-10T17:40:49.196Z,5.2
2023-01-10T17:42:52.813Z,5.5
2023-01-10T17:44:56.432Z,6.1
2023-01-10T17:47:00.127Z,5.8
2023-01-10T17:49:03.698Z,6
2023-01-10T17:53:13.996Z,5.4
2023-01-10T17:55:17.644Z,5.6
2023-01-10T17:57:21.265Z,5.8
2023-01-10T17:59:24.918Z,6.2
2023-01-10T18:01:28.664Z,5.8
2023-01-10T18:05:38.903Z,6.1
2023-01-10T18:07:42.491Z,5.4
2023-01-10T18:09:49.228Z,5.3
2023-01-10T18:12:04.518Z,5.9
2023-01-10T18:14:08.299Z,5.8
2023-01-10T18:16:11.748Z,6.3
2023-01-10T18:18:18.442Z,6
2023-01-10T18:20:22.090Z,5.8
2023-01-10T18:22:25.731Z,6.1
2023-01-10T18:24:29.328Z,5.7
2023-01-10T18:28:41.676Z,6.2
2023-01-10T18:30:40.250Z,6.3
2023-01-10T18:32:46.907Z,5.5
2023-01-10T18:34:50.541Z,5.8
2023-01-10T18:36:54.140Z,6.5
2023-01-10T18:43:05.069Z,6.3
2023-01-10T18:45:08.685Z,5.9
2023-01-10T18:47:15.362Z,6.5
2023-01-10T18:49:19.015Z,6.2
2023-01-10T18:51:22.684Z,6.4
2023-01-10T18:53:26.279Z,6.6
2023-01-10T18:55:29.883Z,6.3
2023-01-10T18:57:33.508Z,6.1
2023-01-10T18:59:53.741Z,6.6
2023-01-10T19:01:57.190Z,6.7
2023-01-10T19:04:16.206Z,6
2023-01-10T19:05:51.149Z,6.8
2023-01-10T19:06:56.719Z,5.8
2023-01-10T19:08:58.088Z,6.5
2023-01-10T19:13:05.380Z,5.9
2023-01-10T19:17:15.676Z,6.8
2023-01-10T19:23:26.529Z,6.7
2023-01-10T19:29:40.522Z,6
2023-01-10T19:33:47.795Z,6.9
2023-01-10T19:35:51.413Z,7
2023-01-10T19:37:55.047Z,6.6
2023-01-10T19:39:58.691Z,6.1
2023-01-10T19:42:02.329Z,6.7
2023-01-10T19:44:08.974Z,7.1
2023-01-10T19:46:12.630Z,6.6
2023-01-10T19:48:16.193Z,7.1
2023-01-10T19:52:23.485Z,7.2
2023-01-10T19:54:31.891Z,6.4
2023-01-10T19:56:30.776Z,7.1
2023-01-10T19:58:37.442Z,7.4
2023-01-10T20:00:41.048Z,6.6
2023-01-10T20:02:44.707Z,7.1
2023-01-10T20:07:55.269Z,6.9
2023-01-10T20:09:58.936Z,7.1
2023-01-10T20:14:09.233Z,7.1
2023-01-10T20:18:16.472Z,7.1
2023-01-10T20:20:21.713Z,7.8
2023-01-10T20:22:25.286Z,6.9
2023-01-10T20:26:40.177Z,7.4
2023-01-10T20:32:46.511Z,7.5
2023-01-10T20:34:50.090Z,7.9
2023-01-10T20:36:53.711Z,7.7
2023-01-10T20:38:57.338Z,7.9
2023-01-10T20:43:07.603Z,7.1
2023-01-10T20:45:11.202Z,7.8
2023-01-10T20:47:14.849Z,7.7
2023-01-10T20:51:22.077Z,8
2023-01-10T20:53:25.670Z,7.2
2023-01-10T20:55:32.360Z,8
2023-01-10T20:57:35.963Z,7.6
2023-01-10T20:59:39.601Z,7.9
2023-01-10T21:00:42.931Z,7.7
2023-01-10T21:02:46.569Z,7.2
2023-01-10T21:04:50.744Z,7.8
2023-01-10T21:06:53.855Z,7.2
2023-01-10T21:09:00.681Z,7.3
2023-01-10T21:11:04.088Z,8.2
2023-01-10T21:13:07.706Z,7.3
2023-01-10T21:15:11.354Z,7.9
2023-01-10T21:17:14.939Z,7.3
2023-01-10T21:19:19.266Z,7.9
2023-01-10T21:21:22.159Z,7.9
2023-01-10T21:23:28.876Z,7.9
2023-01-10T21:25:32.439Z,8.2
2023-01-10T21:27:36.052Z,7.4
2023-01-10T21:29:39.684Z,7.3
2023-01-10T21:33:46.925Z,7.4
2023-01-10T21:35:50.505Z,8.2
2023-01-10T21:37:57.201Z,7.9
2023-01-10T21:40:00.816Z,8
2023-01-10T21:42:04.415Z,8
2023-01-10T21:44:08.005Z,7.1
2023-01-10T21:48:15.259Z,8.2
2023-01-10T21:50:21.506Z,7.9
2023-01-10T21:52:25.559Z,8
2023-01-10T21:54:29.156Z,7.8
2023-01-10T21:56:32.771Z,7.4
2023-01-10T21:58:57.135Z,7.6
2023-01-10T22:01:00.774Z,8.1
2023-01-10T22:03:04.319Z,7.6
2023-01-10T22:05:11.017Z,7.4
2023-01-10T22:07:14.626Z,8.2
2023-01-10T22:09:18.188Z,7.5
2023-01-10T22:13:25.392Z,8.1
2023-01-10T22:15:29.049Z,8.5
2023-01-10T22:17:32.671Z,8.6
2023-01-10T22:19:39.323Z,8.6
2023-01-10T22:23:46.566Z,7.6
2023-01-10T22:29:57.349Z,8.6
2023-01-10T22:34:07.616Z,8.5
2023-01-10T22:36:11.222Z,8.6
2023-01-10T22:38:14.818Z,7.6
2023-01-10T22:40:18.475Z,8.2
2023-01-10T22:46:29.274Z,8.9
2023-01-10T22:48:35.951Z,8.5
2023-01-10T22:50:39.540Z,8.9
2023-01-10T22:52:43.185Z,8.7
2023-01-10T23:04:07.571Z,8.8
2023-01-10T23:06:11.158Z,8.4
2023-01-10T23:08:14.793Z,9.1
2023-01-10T23:10:29.890Z,7.9
2023-01-10T23:14:25.602Z,8.8
2023-01-10T23:16:32.313Z,8.4
2023-01-10T23:18:35.874Z,8.4
2023-01-10T23:20:39.464Z,7.9
2023-01-10T23:22:43.093Z,8.2
2023-01-10T23:24:46.686Z,8.6
2023-01-10T23:26:50.271Z,8.9
2023-01-10T23:28:53.879Z,7.9
2023-01-10T23:31:00.593Z,8.1
2023-01-10T23:33:04.140Z,8.8
2023-01-10T23:35:07.762Z,8.8
2023-01-10T23:37:11.359Z,8.7
2023-01-10T23:39:14.955Z,8.2
2023-01-10T23:41:18.563Z,9.2
2023-01-10T23:43:22.161Z,9
2023-01-10T23:49:36.053Z,8.1
2023-01-10T23:50:39.386Z,9.2
2023-01-10T23:52:42.963Z,8.2
2023-01-10T23:54:46.570Z,8.7
2023-01-10T23:56:50.252Z,9.3
2023-01-10T23:58:56.856Z,9.4
